Aviation Digital Data Service (ADDS)

Output produced by METARs form (0210 UTC 24 July 2014)
found at http://aviationweather.gov/adds/metars/
 
KDFW 240051Z 2401/2506 07005KT P6SM SCT060 OVC300 
     TEMPO 2401/2402 06023G33KT 
     FM241800 05006KT P6SM SCT060 
     FM250100 15005KT P6SM SCT060